M I D A S
Marine Information and Data Acquisition System
Tripno 1257 of the Zeeleeuw from 2007-02-15 09:01:34 to 2007-02-15 15:33:29
Back to CruiseResearch ActivitiesStationsMapUnderway DataData graphs

EquipmentUnitsComment
TimeDGPSUTC
LatitudeDGPSDM.mWGS84
LongitudeDGPSDM.mWGS84
HeadingGyrodeg 
SOGDGPSknotsSpeed over ground
COGDGPSdegCourse over ground
DepthEcho soundermeters200 kHz
Missing or incorrect values are displayed as -999
Navigation data collected by the RV Zeeleeuw from 2007-02-15 07:24:43 to 2007-02-15 15:42:20
Time Latitude Longitude Heading SOG COG Depth
2007-02-15 07:25:48 51°13.598 2°56.094 124.1 -999 52 -999
2007-02-15 07:26:47 51°13.598 2°56.094 124.4 -999 80 -999
2007-02-15 07:27:48 51°13.599 2°56.094 124.2 -999 209 -999
2007-02-15 07:28:48 51°13.599 2°56.094 124.2 -999 293 -999
2007-02-15 07:29:47 51°13.599 2°56.094 124.1 -999 143 -999
2007-02-15 07:30:48 51°13.599 2°56.094 124.1 -999 -999 -999
2007-02-15 07:31:48 51°13.6 2°56.094 124.1 -999 232 -999
2007-02-15 07:32:47 51°13.6 2°56.094 124 -999 1 -999
2007-02-15 07:33:48 51°13.6 2°56.094 124 -999 152 -999
2007-02-15 07:34:47 51°13.599 2°56.094 124.8 -999 232 -999
2007-02-15 07:35:48 51°13.599 2°56.093 124.1 -999 15 -999
2007-02-15 07:36:48 51°13.599 2°56.093 124.2 -999 248 -999
2007-02-15 07:37:47 51°13.599 2°56.094 124.2 -999 40 -999
2007-02-15 07:38:48 51°13.598 2°56.094 124.6 -999 194 -999
2007-02-15 07:39:47 51°13.598 2°56.094 124.6 -999 78 -999
2007-02-15 07:40:47 51°13.599 2°56.094 124.8 -999 19 -999
2007-02-15 07:41:48 51°13.598 2°56.093 124.5 -999 90 -999
2007-02-15 07:42:47 51°13.598 2°56.093 124.6 -999 267 -999
2007-02-15 07:43:48 51°13.598 2°56.093 124.2 -999 272 -999
2007-02-15 07:44:48 51°13.597 2°56.093 124.6 -999 67 -999
2007-02-15 07:45:47 51°13.599 2°56.094 124.6 -999 80 -999
2007-02-15 07:46:48 51°13.6 2°56.094 124.4 -999 303 -999
2007-02-15 07:47:48 51°13.599 2°56.094 124.4 -999 252 -999
2007-02-15 07:48:47 51°13.6 2°56.094 124.6 -999 297 -999
2007-02-15 07:49:48 51°13.599 2°56.094 124.5 -999 322 -999
2007-02-15 07:50:48 51°13.598 2°56.093 124.4 -999 267 -999
2007-02-15 07:51:48 51°13.597 2°56.094 124.4 -999 129 -999
2007-02-15 07:52:48 51°13.599 2°56.094 125.2 -999 299 -999
2007-02-15 07:53:47 51°13.599 2°56.094 124.8 -999 55 -999
2007-02-15 07:54:48 51°13.599 2°56.094 124.8 -999 59 -999
2007-02-15 07:55:47 51°13.599 2°56.094 124.9 -999 -999 -999
2007-02-15 07:56:47 51°13.599 2°56.094 124.6 -999 57 -999
2007-02-15 07:57:48 51°13.599 2°56.094 124.6 -999 311 -999
2007-02-15 07:58:47 51°13.6 2°56.094 125 -999 208 -999
2007-02-15 07:59:48 51°13.6 2°56.094 125 -999 239 -999
2007-02-15 08:00:47 51°13.598 2°56.094 124.4 -999 225 -999
2007-02-15 08:01:47 51°13.598 2°56.095 124.8 -999 190 -999
2007-02-15 08:02:48 51°13.597 2°56.095 124.8 -999 142 -999
2007-02-15 08:03:47 51°13.597 2°56.095 124.6 -999 127 -999
2007-02-15 08:04:48 51°13.597 2°56.095 124.7 -999 145 -999
2007-02-15 08:05:47 51°13.598 2°56.094 124.5 -999 124 -999
2007-02-15 08:06:47 51°13.598 2°56.093 124.1 -999 76 -999
2007-02-15 08:07:48 51°13.6 2°56.093 124.9 -999 212 -999
2007-02-15 08:08:47 51°13.599 2°56.093 124.1 -999 86 -999
2007-02-15 08:09:48 51°13.599 2°56.093 124.6 -999 2 -999
2007-02-15 08:10:47 51°13.6 2°56.093 123.8 -999 312 -999
2007-02-15 08:11:47 51°13.599 2°56.094 124.2 -999 91 -999
2007-02-15 08:12:48 51°13.597 2°56.094 124 -999 314 -999
2007-02-15 08:13:47 51°13.594 2°56.095 124.1 -999 115 -999
2007-02-15 08:14:48 51°13.596 2°56.095 124.1 -999 74 -999
2007-02-15 08:15:48 51°13.596 2°56.095 124.8 -999 266 -999
2007-02-15 08:16:47 51°13.596 2°56.095 124.8 -999 359 -999
2007-02-15 08:17:48 51°13.596 2°56.095 124.7 -999 258 -999
2007-02-15 08:18:47 51°13.596 2°56.094 124.7 -999 235 -999
2007-02-15 08:19:48 51°13.597 2°56.094 124.4 -999 170 -999
2007-02-15 08:20:48 51°13.597 2°56.095 124.6 -999 193 -999
2007-02-15 08:21:47 51°13.597 2°56.094 124.6 -999 238 -999
2007-02-15 08:22:48 51°13.597 2°56.094 124.5 -999 7 -999
2007-02-15 08:23:47 51°13.597 2°56.095 124.4 -999 83 -999
2007-02-15 08:24:47 51°13.596 2°56.095 124.3 -999 75 -999
2007-02-15 08:25:48 51°13.597 2°56.094 124.5 -999 325 -999
2007-02-15 08:26:47 51°13.598 2°56.094 124.5 -999 149 -999
2007-02-15 08:27:48 51°13.598 2°56.094 124.6 -999 181 -999
2007-02-15 08:28:48 51°13.597 2°56.094 124.8 -999 91 -999
2007-02-15 08:29:47 51°13.598 2°56.095 124.8 -999 263 -999
2007-02-15 08:30:48 51°13.598 2°56.094 125 -999 286 -999
2007-02-15 08:31:47 51°13.598 2°56.094 124.3 -999 27 -999
2007-02-15 08:32:48 51°13.596 2°56.094 124.4 -999 75 -999
2007-02-15 08:33:48 51°13.597 2°56.094 124.6 -999 265 -999
2007-02-15 08:34:47 51°13.597 2°56.093 124.2 -999 9 -999
2007-02-15 08:35:48 51°13.597 2°56.094 124.5 -999 26 -999
2007-02-15 08:36:48 51°13.597 2°56.093 124.2 -999 87 -999
2007-02-15 08:37:47 51°13.598 2°56.093 124.1 -999 257 -999
2007-02-15 08:38:48 51°13.599 2°56.093 124.2 -999 80 -999
2007-02-15 08:39:48 51°13.598 2°56.093 124.3 -999 109 -999
2007-02-15 08:40:47 51°13.599 2°56.093 124.3 -999 29 -999
2007-02-15 08:41:48 51°13.598 2°56.093 124.1 -999 178 -999
2007-02-15 08:42:48 51°13.599 2°56.093 124.1 -999 284 -999
2007-02-15 08:43:48 51°13.599 2°56.093 124.2 -999 304 -999
2007-02-15 08:44:48 51°13.598 2°56.093 124.1 -999 315 -999
2007-02-15 08:45:47 51°13.598 2°56.094 124.2 -999 91 -999
2007-02-15 08:46:48 51°13.598 2°56.093 124.4 -999 195 -999
2007-02-15 08:47:48 51°13.598 2°56.095 124.2 -999 8 -999
2007-02-15 08:48:47 51°13.598 2°56.095 124.1 -999 87 -999
2007-02-15 08:49:48 51°13.598 2°56.094 124.1 -999 44 -999
2007-02-15 08:50:48 51°13.597 2°56.095 124.3 -999 199 -999
2007-02-15 08:51:48 51°13.596 2°56.094 124.1 -999 173 -999
2007-02-15 08:52:48 51°13.595 2°56.095 124.1 -999 220 -999
2007-02-15 08:53:47 51°13.596 2°56.097 124.2 -999 171 -999
2007-02-15 08:54:48 51°13.596 2°56.097 124.2 -999 176 -999
2007-02-15 08:55:47 51°13.597 2°56.096 124.4 -999 312 -999
2007-02-15 08:56:48 51°13.598 2°56.095 124.1 -999 162 -999
2007-02-15 08:57:48 51°13.598 2°56.095 124.6 -999 220 -999
2007-02-15 08:58:48 51°13.598 2°56.094 123.6 -999 315 -999
2007-02-15 08:59:48 51°13.6 2°56.095 123.5 -999 236 -999
2007-02-15 09:00:48 51°13.599 2°56.095 123.5 -999 97 -999
2007-02-15 09:01:46 51°13.599 2°56.095 123.9 0.1 113 8.5
2007-02-15 09:02:45 51°13.599 2°56.095 123.9 0.1 164 -999
2007-02-15 09:03:44 51°13.599 2°56.095 123 0.1 179 8.5
2007-02-15 09:04:44 51°13.599 2°56.09 114.3 1.1 290 8.7
2007-02-15 09:05:48 51°13.619 2°56.015 116 3.7 291 -999
2007-02-15 09:06:48 51°13.651 2°55.92 126.6 4.3 305 -999
2007-02-15 09:07:47 51°13.682 2°55.835 114.1 3.3 295 12.2
2007-02-15 09:08:45 51°13.696 2°55.767 101.6 2.6 284 14.5
2007-02-15 09:09:44 51°13.703 2°55.716 89.9 1.1 287 17.5
2007-02-15 09:10:44 51°13.718 2°55.728 43.9 2.4 26 13.8
2007-02-15 09:11:44 51°13.771 2°55.713 332.5 4.1 327 12.1
2007-02-15 09:12:44 51°13.857 2°55.626 333 7.6 331 12.3
2007-02-15 09:13:44 51°13.98 2°55.529 338.9 8.6 334 12.9
2007-02-15 09:14:47 51°14.129 2°55.419 338.5 10.2 332 -999
2007-02-15 09:15:47 51°14.276 2°55.239 318.6 11.7 313 -999
2007-02-15 09:16:46 51°14.417 2°55.009 321.1 13.2 320 12.4
2007-02-15 09:17:44 51°14.58 2°54.786 315 13.3 314 11.4
2007-02-15 09:18:44 51°14.688 2°54.49 295.2 12.9 296 11.7
2007-02-15 09:19:44 51°14.784 2°54.181 295.8 13 296 11.7
2007-02-15 09:20:44 51°14.884 2°53.873 296.8 13.1 298 11.6
2007-02-15 09:21:44 51°14.987 2°53.566 297.6 13.1 298 11.8
2007-02-15 09:22:44 51°15.092 2°53.262 298.3 13.1 299 12.1
2007-02-15 09:23:44 51°15.198 2°52.959 298.3 13 300 12.5
2007-02-15 09:24:44 51°15.3 2°52.656 291.2 12.7 289 13
2007-02-15 09:25:44 51°15.332 2°52.326 276.4 12.6 277 13.5
2007-02-15 09:26:44 51°15.349 2°51.993 272.9 12.6 272 14
2007-02-15 09:27:44 51°15.344 2°51.661 269.4 12.5 269 14.5
2007-02-15 09:28:44 51°15.34 2°51.33 270.2 12.5 268 14.8
2007-02-15 09:29:44 51°15.339 2°50.998 270.7 12.5 270 15
2007-02-15 09:30:44 51°15.337 2°50.666 271 12.5 269 15.1
2007-02-15 09:31:44 51°15.337 2°50.335 271.3 12.4 270 15.2
2007-02-15 09:32:44 51°15.335 2°50.005 270.6 12.5 269 15.2
2007-02-15 09:33:44 51°15.334 2°49.674 271.5 12.5 271 15.2
2007-02-15 09:34:44 51°15.334 2°49.343 271.2 12.5 270 15.3
2007-02-15 09:35:44 51°15.335 2°49.012 271.4 12.5 270 15.4
2007-02-15 09:36:44 51°15.336 2°48.68 271 12.5 271 14.9
2007-02-15 09:37:44 51°15.335 2°48.348 271.3 12.6 270 13.1
2007-02-15 09:38:44 51°15.333 2°48.014 271.6 12.6 269 12.3
2007-02-15 09:39:44 51°15.331 2°47.679 271 12.6 270 12.3
2007-02-15 09:40:44 51°15.33 2°47.346 271 12.5 269 13
2007-02-15 09:41:44 51°15.33 2°47.016 271.4 12.4 269 14.2
2007-02-15 09:42:44 51°15.33 2°46.688 271.5 12.4 270 15.3
2007-02-15 09:43:44 51°15.33 2°46.359 271.2 12.4 270 16.6
2007-02-15 09:44:44 51°15.33 2°46.03 271.1 12.4 270 17.6
2007-02-15 09:45:44 51°15.33 2°45.701 271.2 12.4 269 18.5
2007-02-15 09:46:44 51°15.332 2°45.372 271.2 12.5 271 19.5
2007-02-15 09:47:44 51°15.333 2°45.041 270.8 12.4 269 20.7
2007-02-15 09:48:44 51°15.335 2°44.711 270.7 12.5 270 20.1
2007-02-15 09:49:44 51°15.336 2°44.38 270.9 12.5 271 18.6
2007-02-15 09:50:44 51°15.336 2°44.05 271.2 12.5 270 16.2
2007-02-15 09:51:44 51°15.337 2°43.719 271.2 12.5 271 15.5
2007-02-15 09:52:44 51°15.34 2°43.389 271.2 12.5 270 15.8
2007-02-15 09:53:44 51°15.342 2°43.059 271.4 12.4 270 16
2007-02-15 09:54:44 51°15.343 2°42.728 271 12.5 269 14.8
2007-02-15 09:55:44 51°15.343 2°42.396 273.2 12.5 273 14
2007-02-15 09:56:44 51°15.404 2°42.076 292.4 12.7 292 13
2007-02-15 09:57:44 51°15.485 2°41.763 292.5 12.8 292 12.8
2007-02-15 09:58:44 51°15.564 2°41.445 292.3 12.9 292 13.2
2007-02-15 09:59:44 51°15.642 2°41.127 291.8 12.9 292 14.2
2007-02-15 10:00:44 51°15.72 2°40.808 291.4 13 291 16.3
2007-02-15 10:01:44 51°15.753 2°40.479 268.9 12.5 268 19.2
2007-02-15 10:02:44 51°15.736 2°40.151 265.5 12.5 265 21
2007-02-15 10:03:44 51°15.721 2°39.821 265.8 12.5 266 22
2007-02-15 10:04:44 51°15.707 2°39.492 265.9 12.6 266 22
2007-02-15 10:05:44 51°15.692 2°39.161 266.3 12.6 265 21
2007-02-15 10:06:44 51°15.676 2°38.83 267 12.4 265 18.3
2007-02-15 10:07:44 51°15.659 2°38.5 267.2 12.4 264 15.5
2007-02-15 10:08:44 51°15.642 2°38.175 266.9 12.3 266 13.3
2007-02-15 10:09:44 51°15.63 2°37.851 270.8 12.2 268 13.2
2007-02-15 10:10:44 51°15.629 2°37.525 271.1 12.3 269 13.1
2007-02-15 10:11:44 51°15.63 2°37.197 272.1 12.4 272 15.4
2007-02-15 10:12:44 51°15.635 2°36.868 272.9 12.4 271 15.7
2007-02-15 10:13:44 51°15.644 2°36.535 272.5 12.6 272 19.7
2007-02-15 10:14:44 51°15.654 2°36.202 271.8 12.6 273 25.4
2007-02-15 10:15:44 51°15.663 2°35.868 272.2 12.6 274 28.7
2007-02-15 10:16:44 51°15.674 2°35.534 272.7 12.6 273 29.3
2007-02-15 10:17:44 51°15.688 2°35.202 273.2 12.5 275 29
2007-02-15 10:18:44 51°15.7 2°34.874 272.1 12.4 273 28.9
2007-02-15 10:19:44 51°15.711 2°34.539 272.3 12.7 272 27.9
2007-02-15 10:20:44 51°15.716 2°34.201 272 12.8 272 25.4
2007-02-15 10:21:44 51°15.719 2°33.864 272.1 12.6 269 17.4
2007-02-15 10:22:44 51°15.72 2°33.53 272 12.5 271 12.9
2007-02-15 10:23:44 51°15.719 2°33.202 272.2 12.4 270 11.8
2007-02-15 10:24:44 51°15.718 2°32.875 272.3 12.3 271 11.4
2007-02-15 10:25:44 51°15.719 2°32.551 272.9 12.2 271 11
2007-02-15 10:26:44 51°15.721 2°32.226 272.4 12.3 271 11
2007-02-15 10:27:44 51°15.711 2°31.904 259.4 11.9 255 21.5
2007-02-15 10:28:44 51°15.59 2°31.687 212.4 10.5 203 21.9
2007-02-15 10:29:44 51°15.466 2°31.613 216.7 6.3 208 15.4
2007-02-15 10:30:44 51°15.38 2°31.516 223.5 7.9 216 15.6
2007-02-15 10:31:44 51°15.262 2°31.373 223.3 9.4 217 13.2
2007-02-15 10:32:44 51°15.135 2°31.224 222.7 9.5 215 14.2
2007-02-15 10:33:44 51°15.007 2°31.077 222.4 9.6 216 12.9
2007-02-15 10:34:44 51°14.908 2°30.968 221.3 5.5 211 11.1
2007-02-15 10:35:44 51°14.843 2°30.907 223.9 4 214 11.7
2007-02-15 10:36:44 51°14.797 2°30.845 232.5 3.5 226 12.3
2007-02-15 10:37:44 51°14.747 2°30.768 231.2 4.4 225 13.5
2007-02-15 10:38:44 51°14.697 2°30.677 234.3 4.8 229 11.3
2007-02-15 10:39:44 51°14.646 2°30.582 235.5 4.7 231 12.9
2007-02-15 10:40:44 51°14.607 2°30.473 246.5 4.8 247 13
2007-02-15 10:41:44 51°14.571 2°30.374 239.2 3.7 236 13.9
2007-02-15 10:42:44 51°14.544 2°30.3 245.1 3 248 13.3
2007-02-15 10:43:44 51°14.52 2°30.241 238 2.5 235 13.3
2007-02-15 10:44:44 51°14.5 2°30.187 233.1 2.3 231 13.1
2007-02-15 10:45:44 51°14.484 2°30.131 252.8 2.1 262 11.8
2007-02-15 10:46:44 51°14.489 2°30.087 265.9 1.9 292 13.2
2007-02-15 10:47:44 51°14.543 2°30.05 347 5.1 4 15
2007-02-15 10:48:45 51°14.618 2°30.147 62.3 6.6 59 14.5
2007-02-15 10:49:45 51°14.678 2°30.354 86.6 8.8 86 13.7
2007-02-15 10:50:45 51°14.64 2°30.495 160.7 3.9 134 13
2007-02-15 10:51:44 51°14.609 2°30.551 171.5 2.2 126 12.7
2007-02-15 10:52:44 51°14.589 2°30.591 191.8 1.6 148 12.9
2007-02-15 10:53:44 51°14.568 2°30.579 239.5 2.3 240 12.7
2007-02-15 10:54:44 51°14.543 2°30.5 238.1 3.6 236 12.4
2007-02-15 10:55:44 51°14.512 2°30.426 241.3 3.3 241 13.4
2007-02-15 10:56:44 51°14.487 2°30.35 239.7 3.2 238 13.7
2007-02-15 10:57:44 51°14.459 2°30.282 240.3 3.1 239 13.1
2007-02-15 10:58:44 51°14.434 2°30.211 238 2.8 237 13.5
2007-02-15 10:59:44 51°14.424 2°30.154 259.1 1.8 274 11.9
2007-02-15 11:00:44 51°14.432 2°30.11 272.9 1.7 304 12.1
2007-02-15 11:01:44 51°14.461 2°30.084 307.7 2.4 349 13
2007-02-15 11:02:44 51°14.512 2°30.087 352.5 4 15 13.2
2007-02-15 11:03:44 51°14.613 2°30.149 17 9.6 20 14.2
2007-02-15 11:04:44 51°14.736 2°30.342 64.6 9 63 12.8
2007-02-15 11:05:44 51°14.766 2°30.513 99 5.3 84 14.4
2007-02-15 11:06:45 51°14.768 2°30.631 115.3 4.2 93 12.8
2007-02-15 11:07:45 51°14.745 2°30.722 161.1 3.4 140 13.6
2007-02-15 11:08:45 51°14.701 2°30.699 240.2 4.4 243 12
2007-02-15 11:09:45 51°14.649 2°30.587 230.7 5.4 229 12.7
2007-02-15 11:10:45 51°14.59 2°30.477 234.3 5.5 231 12.8
2007-02-15 11:11:45 51°14.529 2°30.369 229.4 5.5 226 13.7
2007-02-15 11:12:45 51°14.483 2°30.274 237.2 3.9 235 13.1
2007-02-15 11:13:44 51°14.448 2°30.213 240.3 2.6 238 13.4
2007-02-15 11:14:45 51°14.419 2°30.192 200.5 1.5 169 13.4
2007-02-15 11:15:45 51°14.397 2°30.21 198.3 1.4 160 13.7
2007-02-15 11:16:45 51°14.385 2°30.187 262 1.8 286 13.6
2007-02-15 11:17:45 51°14.423 2°30.148 328.1 4.3 351 11.7
2007-02-15 11:18:45 51°14.503 2°30.206 42 7.5 48 13.1
2007-02-15 11:19:44 51°14.584 2°30.452 49.3 12.4 45 12.8
2007-02-15 11:20:44 51°14.72 2°30.736 60.3 13.9 58 13.1
2007-02-15 11:21:44 51°14.845 2°31.056 62.2 14.6 60 10.8
2007-02-15 11:22:45 51°14.971 2°31.398 62.9 14.8 60 9.4
2007-02-15 11:23:44 51°15.076 2°31.742 69.7 14.7 67 10
2007-02-15 11:24:44 51°15.174 2°32.095 70.4 13.8 66 10.4
2007-02-15 11:25:44 51°15.255 2°32.391 70.7 11.3 67 10.8
2007-02-15 11:26:44 51°15.33 2°32.659 70.1 10.9 66 11.4
2007-02-15 11:27:44 51°15.393 2°32.923 83.9 9.6 85 12
2007-02-15 11:28:44 51°15.335 2°33.08 151.6 6.6 141 13.4
2007-02-15 11:29:44 51°15.241 2°33.173 159 6.8 147 16.7
2007-02-15 11:30:44 51°15.149 2°33.234 197.8 4.8 195 21.8
2007-02-15 11:31:44 51°15.097 2°33.15 218.6 4.7 210 21
2007-02-15 11:32:44 51°15.024 2°33.088 215.5 4.3 212 22.3
2007-02-15 11:33:44 51°14.975 2°33.045 213.5 2.7 208 21
2007-02-15 11:34:44 51°14.952 2°33.02 230.3 0.5 256 21.3
2007-02-15 11:35:44 51°14.961 2°33.015 250 0.8 357 21.4
2007-02-15 11:36:44 51°14.977 2°33.019 257.4 1 12 21.5
2007-02-15 11:37:44 51°14.994 2°33.027 258.5 1.2 19 21
2007-02-15 11:38:44 51°15.012 2°33.039 262.7 1.2 24 20.8
2007-02-15 11:39:44 51°15.032 2°33.053 273.2 1.5 35 21
2007-02-15 11:40:44 51°15.045 2°33.113 293.9 2.5 81 21.8
2007-02-15 11:41:44 51°15.057 2°33.111 264.1 2.4 274 22.2
2007-02-15 11:42:44 51°15.027 2°33.065 199.4 2.9 190 21
2007-02-15 11:43:44 51°14.98 2°33.052 212.1 2.3 202 21.6
2007-02-15 11:44:44 51°14.958 2°33.024 224.3 1.3 229 20.6
2007-02-15 11:45:44 51°14.956 2°33.013 237.9 0.4 334 22.2
2007-02-15 11:46:44 51°14.969 2°33.016 255.1 1 20 21.3
2007-02-15 11:47:44 51°14.986 2°33.026 268.5 1.2 20 21.7
2007-02-15 11:48:44 51°15.005 2°33.037 278.7 1.3 25 20.8
2007-02-15 11:49:44 51°15.026 2°33.053 285.9 1.4 26 20.6
2007-02-15 11:50:44 51°15.045 2°33.075 291.1 1.8 54 20.5
2007-02-15 11:51:44 51°15.051 2°33.128 313.3 1.6 81 21.7
2007-02-15 11:52:44 51°15.073 2°33.111 275.6 2.7 290 21.5
2007-02-15 11:53:44 51°15.036 2°33.046 202.5 4.8 194 20.7
2007-02-15 11:54:44 51°14.955 2°33.045 205.6 4 205 21.8
2007-02-15 11:55:44 51°14.933 2°33.006 226.3 0.9 240 22
2007-02-15 11:56:44 51°14.94 2°33.003 230.6 0.7 8 21.9
2007-02-15 11:57:44 51°14.954 2°33.009 246.7 1 16 21.8
2007-02-15 11:58:44 51°14.972 2°33.018 263.6 1.2 19 20.9
2007-02-15 11:59:44 51°14.991 2°33.029 277.4 1.3 21 20.8
2007-02-15 12:00:44 51°15.011 2°33.042 286.6 1.2 23 20.7
2007-02-15 12:01:44 51°15.032 2°33.056 289.8 1.4 26 20.6
2007-02-15 12:02:44 51°15.051 2°33.076 292.5 1.7 49 20.9
2007-02-15 12:03:48 51°15.054 2°33.138 314 1.2 49 -999
2007-02-15 12:04:46 51°15.069 2°33.088 255 3.3 255 19.9
2007-02-15 12:05:44 51°15.013 2°33.06 182.7 4.1 173 21.8
2007-02-15 12:06:44 51°14.961 2°33.047 210.9 2.4 206 21.3
2007-02-15 12:07:44 51°14.945 2°33.014 241.2 1 271 21.4
2007-02-15 12:08:44 51°14.956 2°33.007 261.7 0.9 9 21.5
2007-02-15 12:09:44 51°14.975 2°33.017 277.7 1.2 22 21.1
2007-02-15 12:10:44 51°14.994 2°33.031 286.9 1.2 26 21.2
2007-02-15 12:11:44 51°15.013 2°33.046 293.5 1.3 27 21.1
2007-02-15 12:12:44 51°15.032 2°33.063 298.1 1.3 29 20.8
2007-02-15 12:13:45 51°15.043 2°33.105 309.1 2.2 88 21
2007-02-15 12:14:45 51°15.061 2°33.109 287 2.4 307 4.8
2007-02-15 12:15:44 51°15.051 2°33.045 219.2 3.1 210 20
2007-02-15 12:16:44 51°15.002 2°33.069 165.4 3 149 21.1
2007-02-15 12:17:44 51°14.963 2°33.074 214.9 1.7 211 21.9
2007-02-15 12:18:44 51°14.949 2°33.037 234.4 1.7 244 22
2007-02-15 12:19:44 51°14.94 2°33.009 230.6 0.5 279 21.7
2007-02-15 12:20:44 51°14.946 2°33.002 239.3 0.5 349 21.7
2007-02-15 12:21:44 51°14.96 2°33.005 244.2 1 17 20.9
2007-02-15 12:22:44 51°14.979 2°33.018 263.9 1.3 30 21.2
2007-02-15 12:23:44 51°14.997 2°33.036 284.5 1.3 30 21.4
2007-02-15 12:24:44 51°15.015 2°33.053 296.7 1.3 30 21.3
2007-02-15 12:25:44 51°15.032 2°33.069 302.9 1.2 30 21.2
2007-02-15 12:26:45 51°15.051 2°33.084 304.3 1.3 23 21
2007-02-15 12:27:45 51°15.074 2°33.076 295.1 2.5 314 19.4
2007-02-15 12:28:45 51°15.072 2°32.901 255.3 11 249 15.1
2007-02-15 12:29:45 51°14.965 2°32.621 238.2 12.7 235 12.8
2007-02-15 12:30:45 51°14.844 2°32.343 238.6 12.6 236 11.6
2007-02-15 12:31:45 51°14.726 2°32.063 239.1 12.7 237 10.7
2007-02-15 12:32:45 51°14.611 2°31.782 240.2 12.7 238 9.8
2007-02-15 12:33:45 51°14.495 2°31.502 239.9 12.5 237 9.5
2007-02-15 12:34:45 51°14.398 2°31.206 246.4 12.7 244 8.8
2007-02-15 12:35:45 51°14.326 2°30.892 252.8 12.6 251 10.1
2007-02-15 12:36:45 51°14.296 2°30.56 272.9 12.8 275 10.9
2007-02-15 12:37:45 51°14.321 2°30.319 273.7 6.2 276 11.6
2007-02-15 12:38:45 51°14.331 2°30.22 280.4 2.6 303 13
2007-02-15 12:39:45 51°14.352 2°30.216 317 1.4 15 13.1
2007-02-15 12:40:45 51°14.376 2°30.227 334.2 1.6 17 12.8
2007-02-15 12:41:45 51°14.403 2°30.239 331 1.8 17 12.6
2007-02-15 12:42:45 51°14.421 2°30.263 323.2 2.1 101 12.3
2007-02-15 12:43:48 51°14.373 2°30.334 349.7 3.3 148 4.7
2007-02-15 12:44:46 51°14.371 2°30.363 29.1 2.6 36 12
2007-02-15 12:45:45 51°14.396 2°30.398 57 1.9 38 12.7
2007-02-15 12:46:45 51°14.42 2°30.429 64.5 1.8 38 12.7
2007-02-15 12:47:45 51°14.442 2°30.458 74.8 1.7 40 11.9
2007-02-15 12:48:45 51°14.463 2°30.487 84.5 1.6 43 11.3
2007-02-15 12:49:45 51°14.482 2°30.513 92.3 1.5 39 10.8
2007-02-15 12:50:45 51°14.501 2°30.537 96.6 1.4 38 10.6
2007-02-15 12:51:44 51°14.52 2°30.558 102.1 1.3 35 10.8
2007-02-15 12:52:45 51°14.539 2°30.579 106.7 1.3 33 11.4
2007-02-15 12:53:45 51°14.559 2°30.598 109.7 1.3 32 11.7
2007-02-15 12:54:45 51°14.579 2°30.617 110.4 1.4 31 11.2
2007-02-15 12:55:45 51°14.599 2°30.636 109.2 1.5 30 10.6
2007-02-15 12:56:45 51°14.618 2°30.662 114.1 1.6 58 9.8
2007-02-15 12:57:45 51°14.614 2°30.711 154.7 2.7 138 10.7
2007-02-15 12:58:45 51°14.583 2°30.717 207.1 1.5 199 10.9
2007-02-15 12:59:45 51°14.57 2°30.685 231.4 1.4 243 8.6
2007-02-15 13:00:45 51°14.561 2°30.655 223.8 1.1 245 9.7
2007-02-15 13:01:45 51°14.553 2°30.633 221 0.9 245 10.5
2007-02-15 13:02:45 51°14.546 2°30.613 219.9 0.8 240 11.3
2007-02-15 13:03:45 51°14.54 2°30.594 220.7 0.8 240 11.4
2007-02-15 13:04:45 51°14.534 2°30.574 221.3 0.8 248 11
2007-02-15 13:05:45 51°14.529 2°30.554 222.9 0.8 253 10.8
2007-02-15 13:06:45 51°14.525 2°30.533 224.6 0.9 259 10.8
2007-02-15 13:07:45 51°14.522 2°30.512 225.7 0.9 264 10.9
2007-02-15 13:08:45 51°14.521 2°30.491 227.9 0.7 269 11.1
2007-02-15 13:09:45 51°14.521 2°30.469 229.2 0.8 277 11.4
2007-02-15 13:10:45 51°14.523 2°30.445 231.6 0.8 277 11.8
2007-02-15 13:11:45 51°14.524 2°30.424 233.7 0.9 280 12.1
2007-02-15 13:12:45 51°14.526 2°30.401 235.7 0.9 282 12.3
2007-02-15 13:13:45 51°14.532 2°30.378 237.9 0.9 297 12.5
2007-02-15 13:14:45 51°14.542 2°30.362 241.7 0.8 329 12.5
2007-02-15 13:15:45 51°14.556 2°30.355 244.9 0.9 349 12.6
2007-02-15 13:16:45 51°14.572 2°30.352 247.6 1 357 12.5
2007-02-15 13:17:45 51°14.591 2°30.351 250.7 1.1 -999 12.5
2007-02-15 13:18:45 51°14.61 2°30.351 254 1.2 2 12.5
2007-02-15 13:19:45 51°14.631 2°30.354 260.5 1.3 6 12.5
2007-02-15 13:20:45 51°14.654 2°30.358 269.6 1.4 10 12.5
2007-02-15 13:21:45 51°14.676 2°30.365 278.8 1.4 11 12.6
2007-02-15 13:22:45 51°14.7 2°30.372 283.8 1.5 11 12.6
2007-02-15 13:23:45 51°14.724 2°30.375 282.1 1.4 356 12.5
2007-02-15 13:24:45 51°14.744 2°30.363 262.8 1.2 327 12.1
2007-02-15 13:25:45 51°14.757 2°30.344 242.8 1 309 11.2
2007-02-15 13:26:45 51°14.763 2°30.327 225.5 0.6 295 11
2007-02-15 13:27:45 51°14.765 2°30.315 209.4 0.4 277 11.2
2007-02-15 13:28:45 51°14.764 2°30.312 195.2 0.2 159 11.3
2007-02-15 13:29:45 51°14.759 2°30.315 189.7 0.4 158 11.1
2007-02-15 13:30:45 51°14.751 2°30.319 196.3 0.5 184 10.9
2007-02-15 13:31:45 51°14.745 2°30.309 217 0.7 245 11.2
2007-02-15 13:32:45 51°14.742 2°30.29 217.7 0.7 257 12.2
2007-02-15 13:33:45 51°14.738 2°30.278 202.2 0.4 218 12.9
2007-02-15 13:34:45 51°14.732 2°30.276 192.5 0.5 172 12.9
2007-02-15 13:35:45 51°14.724 2°30.281 188.1 0.6 159 12.4
2007-02-15 13:36:45 51°14.714 2°30.289 186.2 0.7 158 11.7
2007-02-15 13:37:45 51°14.702 2°30.299 185.7 0.8 154 11
2007-02-15 13:38:45 51°14.688 2°30.309 187.1 0.9 158 10.7
2007-02-15 13:39:45 51°14.673 2°30.316 186.6 1 164 10.7
2007-02-15 13:40:45 51°14.657 2°30.323 186 1.1 160 11.1
2007-02-15 13:41:45 51°14.639 2°30.331 184.6 1.2 161 11.7
2007-02-15 13:42:45 51°14.619 2°30.338 184.9 1.2 167 12
2007-02-15 13:43:45 51°14.599 2°30.341 189.4 1.2 180 12.1
2007-02-15 13:44:45 51°14.579 2°30.339 194.5 1.2 188 12
2007-02-15 13:45:45 51°14.559 2°30.331 199.5 1.2 202 12
2007-02-15 13:46:45 51°14.548 2°30.322 203.2 0.5 206 11.9
2007-02-15 13:47:45 51°14.546 2°30.316 206.2 0.3 298 11.8
2007-02-15 13:48:45 51°14.553 2°30.309 219.4 0.7 336 11.6
2007-02-15 13:49:45 51°14.566 2°30.301 235.7 1 342 11.4
2007-02-15 13:50:45 51°14.583 2°30.295 252.5 1.1 352 11.1
2007-02-15 13:51:45 51°14.602 2°30.292 267.1 1.2 355 10.9
2007-02-15 13:52:45 51°14.622 2°30.291 279.4 1.1 -999 10.8
2007-02-15 13:53:45 51°14.641 2°30.292 289 1.2 5 10.7
2007-02-15 13:54:45 51°14.66 2°30.294 295.3 1.1 3 10.6
2007-02-15 13:55:45 51°14.679 2°30.294 298.2 1.2 1 10.7
2007-02-15 13:56:45 51°14.697 2°30.295 297.1 1.1 2 10.9
2007-02-15 13:57:45 51°14.716 2°30.295 296.4 1.1 358 11.1
2007-02-15 13:58:45 51°14.735 2°30.297 296 1.1 355 11.4
2007-02-15 13:59:45 51°14.757 2°30.284 292.3 1.6 323 12.5
2007-02-15 14:00:45 51°14.778 2°30.237 281.4 2.5 298 14.7
2007-02-15 14:01:45 51°14.796 2°30.196 273.5 1.5 311 17.4
2007-02-15 14:02:45 51°14.811 2°30.169 270 1.3 317 20.4
2007-02-15 14:03:45 51°14.826 2°30.15 266.5 1.1 325 22.6
2007-02-15 14:04:45 51°14.84 2°30.137 265.5 1.1 335 23.9
2007-02-15 14:05:45 51°14.856 2°30.126 265.1 1.1 327 24.6
2007-02-15 14:06:45 51°14.866 2°30.082 258.2 2.4 276 25.9
2007-02-15 14:07:45 51°14.862 2°30.01 248.2 3 259 26.7
2007-02-15 14:08:45 51°14.851 2°29.941 241.1 2.1 256 26.7
2007-02-15 14:09:45 51°14.847 2°29.897 239.4 1.4 266 26.9
2007-02-15 14:10:45 51°14.85 2°29.868 240.1 1 290 27
2007-02-15 14:11:45 51°14.858 2°29.847 242.2 0.8 309 27
2007-02-15 14:12:45 51°14.868 2°29.831 244.5 1 291 26.6
2007-02-15 14:13:45 51°14.839 2°29.81 175.6 3.4 160 25.8
2007-02-15 14:14:45 51°14.814 2°29.877 122.9 2.6 98 26.7
2007-02-15 14:15:45 51°14.814 2°29.939 115.1 2.2 85 26.9
2007-02-15 14:16:45 51°14.817 2°29.998 110.8 2.3 82 26.1
2007-02-15 14:17:45 51°14.83 2°30.061 82.4 2.9 60 25.4
2007-02-15 14:18:45 51°14.915 2°30.228 56.3 12.5 50 23.2
2007-02-15 14:19:45 51°15.061 2°30.504 55.6 13.9 50 22.5
2007-02-15 14:20:44 51°15.207 2°30.782 55.9 13.9 49 20.1
2007-02-15 14:21:45 51°15.354 2°31.07 57.5 13.8 52 18.4
2007-02-15 14:22:45 51°15.498 2°31.352 56.4 13.7 51 19.4
2007-02-15 14:23:44 51°15.638 2°31.629 57.5 13.6 52 20.3
2007-02-15 14:24:45 51°15.778 2°31.916 57.4 13.5 52 23
2007-02-15 14:25:45 51°15.827 2°32.251 97.7 13.2 96 15.2
2007-02-15 14:26:45 51°15.766 2°32.565 111.4 12.4 106 8.6
2007-02-15 14:27:44 51°15.715 2°32.885 108.2 12.9 103 9.1
2007-02-15 14:28:45 51°15.693 2°33.232 99.1 13.2 94 9.7
2007-02-15 14:29:45 51°15.673 2°33.58 100.1 13.3 96 11.7
2007-02-15 14:30:45 51°15.654 2°33.933 99 13.4 94 18.7
2007-02-15 14:31:45 51°15.637 2°34.288 98.3 13.4 94 24.9
2007-02-15 14:32:45 51°15.625 2°34.646 98.3 13.5 94 26.3
2007-02-15 14:33:45 51°15.611 2°35.001 100.3 13.4 95 26.4
2007-02-15 14:34:44 51°15.586 2°35.349 101.2 13.4 97 26.5
2007-02-15 14:35:45 51°15.563 2°35.712 99.2 13.6 95 26.3
2007-02-15 14:36:45 51°15.537 2°36.068 103.3 13.5 98 22.5
2007-02-15 14:37:45 51°15.512 2°36.422 101.3 13.4 98 16.7
2007-02-15 14:38:45 51°15.489 2°36.771 100.1 13.2 96 13.3
2007-02-15 14:39:45 51°15.462 2°37.116 102.6 13.2 98 13.1
2007-02-15 14:40:45 51°15.427 2°37.458 103 12.8 99 12.1
2007-02-15 14:41:45 51°15.393 2°37.799 102.2 12.9 99 11.3
2007-02-15 14:42:45 51°15.359 2°38.141 102.3 13.2 99 11.4
2007-02-15 14:43:44 51°15.326 2°38.482 103 13.1 99 14.6
2007-02-15 14:44:45 51°15.289 2°38.837 103 13.4 100 18
2007-02-15 14:45:45 51°15.255 2°39.187 102.2 13.4 100 18.5
2007-02-15 14:46:45 51°15.217 2°39.536 102.3 13.4 100 17.3
2007-02-15 14:47:45 51°15.183 2°39.882 102.3 13.2 101 15.2
2007-02-15 14:48:45 51°15.144 2°40.225 102.4 13.2 101 13
2007-02-15 14:49:45 51°15.107 2°40.566 102.3 13 100 12.3
2007-02-15 14:50:44 51°15.07 2°40.899 102.4 12.9 98 11.6
2007-02-15 14:51:45 51°15.032 2°41.244 102.2 13.1 100 12.2
2007-02-15 14:52:44 51°14.993 2°41.581 103.2 13.2 101 12.6
2007-02-15 14:53:45 51°14.954 2°41.931 102.3 13.2 100 13.1
2007-02-15 14:54:45 51°14.915 2°42.272 102.5 12.9 99 13.7
2007-02-15 14:55:45 51°14.884 2°42.614 96.4 13.1 91 13.6
2007-02-15 14:56:45 51°14.875 2°42.961 95.4 13.2 93 14.6
2007-02-15 14:57:45 51°14.867 2°43.31 94.7 13.2 93 17.6
2007-02-15 14:58:45 51°14.856 2°43.659 95.4 13.1 92 18.2
2007-02-15 14:59:44 51°14.857 2°44.003 91.5 13.2 89 17.3
2007-02-15 15:00:45 51°14.859 2°44.36 92.1 13.2 89 16.5
2007-02-15 15:01:45 51°14.862 2°44.707 92.2 13.1 88 15.7
2007-02-15 15:02:45 51°14.865 2°45.055 92.9 13 90 14.6
2007-02-15 15:03:45 51°14.866 2°45.402 92.9 13.1 90 13.2
2007-02-15 15:04:45 51°14.87 2°45.749 91.6 13.1 88 11.5
2007-02-15 15:05:45 51°14.874 2°46.093 92.1 12.9 89 9.7
2007-02-15 15:06:45 51°14.878 2°46.436 91.9 13 88 8.7
2007-02-15 15:07:45 51°14.873 2°46.78 94.6 13.1 92 9.4
2007-02-15 15:08:44 51°14.864 2°47.126 95.4 13.4 91 11.3
2007-02-15 15:09:45 51°14.852 2°47.482 96.1 13.2 94 12.8
2007-02-15 15:10:45 51°14.833 2°47.829 97.8 13 94 12.5
2007-02-15 15:11:45 51°14.831 2°48.175 92.4 13 90 12
2007-02-15 15:12:45 51°14.83 2°48.52 93.2 13 91 12
2007-02-15 15:13:45 51°14.826 2°48.864 93.2 13 91 12.3
2007-02-15 15:14:45 51°14.824 2°49.212 93.6 13.2 90 12.3
2007-02-15 15:15:45 51°14.822 2°49.56 93.4 13 91 12.2
2007-02-15 15:16:45 51°14.819 2°49.907 92.5 13.2 90 12
2007-02-15 15:17:44 51°14.817 2°50.247 93.5 13 91 11.9
2007-02-15 15:18:45 51°14.813 2°50.596 93.4 12.9 91 11.6
2007-02-15 15:19:45 51°14.807 2°50.936 94.1 12.7 91 11.2
2007-02-15 15:20:45 51°14.804 2°51.273 92.1 12.7 90 10.7
2007-02-15 15:21:45 51°14.803 2°51.614 93.1 12.9 90 10.3
2007-02-15 15:22:45 51°14.802 2°51.957 93.1 12.9 91 9.9
2007-02-15 15:23:45 51°14.796 2°52.3 96.2 12.9 93 9.5
2007-02-15 15:24:45 51°14.782 2°52.642 95.9 12.9 93 9.2
2007-02-15 15:25:45 51°14.766 2°52.984 96.2 12.9 93 9
2007-02-15 15:26:45 51°14.741 2°53.322 101.4 13 98 9.1
2007-02-15 15:27:45 51°14.705 2°53.668 104.7 13.2 102 10.1
2007-02-15 15:28:45 51°14.659 2°54.009 103.7 13.2 101 10.7
2007-02-15 15:29:45 51°14.606 2°54.345 108.7 13 107 10.6
2007-02-15 15:30:45 51°14.529 2°54.666 117 12.9 116 9.6
2007-02-15 15:31:45 51°14.419 2°54.963 124.8 13 124 10
2007-02-15 15:32:45 51°14.283 2°55.228 135 12.7 133 11.1
2007-02-15 15:33:46 51°14.131 2°55.415 156.2 9.2 156 10.4
2007-02-15 15:34:45 51°14.014 2°55.496 159.9 8 156 10.5
2007-02-15 15:35:45 51°13.883 2°55.581 160 8.9 156 10.2
2007-02-15 15:36:45 51°13.764 2°55.693 145.7 7.6 142 10.6
2007-02-15 15:37:45 51°13.691 2°55.818 130.6 5.1 126 9.1
2007-02-15 15:38:45 51°13.65 2°55.91 129.1 3.9 123 9.8
2007-02-15 15:39:45 51°13.617 2°55.998 123.3 3.9 116 9.9
2007-02-15 15:40:45 51°13.6 2°56.078 113.7 1.7 100 8.2
2007-02-15 15:41:45 51°13.6 2°56.089 119.1 0.2 105 6.3